Time;durP1;ratioP1;P1;durP2;ratioP2;P2;SDS_P1;SDS_P2;PMS_P1;PMS_P2;Temp;Humidity;BMP_temperature;BMP_pressure;BME280_temperature;BME280_humidity;BME280_pressure;Samples;Min_cycle;Max_cycle;Signal;HPM_P1;HPM_P2
2022/08/21 00:01:13;;;;;;;7.85;5.68;;;;;;;14.53;89.04;101633.50;5046248;28;20055;-78
2022/08/21 00:03:38;;;;;;;8.55;5.93;;;;;;;14.58;88.66;101629.53;5047423;28;20025;-78
2022/08/21 00:06:04;;;;;;;9.25;5.68;;;;;;;14.53;88.71;101636.13;5029839;28;20382;-78
2022/08/21 00:08:30;;;;;;;9.52;5.50;;;;;;;14.48;88.94;101628.56;5048712;28;20425;-79
2022/08/21 00:10:58;;;;;;;10.18;6.30;;;;;;;14.44;89.25;101626.28;5045663;28;20477;-79
2022/08/21 00:13:25;;;;;;;9.75;6.15;;;;;;;14.40;89.45;101630.91;5048076;28;20025;-77
2022/08/21 00:15:54;;;;;;;7.93;5.80;;;;;;;14.38;88.94;101638.97;5045603;28;20673;-78
2022/08/21 00:18:20;;;;;;;7.07;5.65;;;;;;;14.37;89.29;101621.41;5045682;28;20461;-80
2022/08/21 00:20:46;;;;;;;8.43;6.07;;;;;;;14.39;89.34;101624.75;5047932;28;20025;-80
2022/08/21 00:23:13;;;;;;;11.43;7.13;;;;;;;14.37;89.62;101624.03;5044899;28;20063;-79
2022/08/21 00:25:39;;;;;;;9.15;6.68;;;;;;;14.39;89.65;101627.41;5046377;28;20028;-80
2022/08/21 00:28:06;;;;;;;10.23;6.18;;;;;;;14.37;89.61;101631.97;5047088;28;20029;-78
2022/08/21 00:30:32;;;;;;;10.48;6.40;;;;;;;14.35;90.01;101625.97;5047255;28;20021;-80
2022/08/21 00:32:58;;;;;;;11.35;6.95;;;;;;;14.39;89.93;101619.47;5048375;28;20017;-79
2022/08/21 00:35:31;;;;;;;10.45;7.13;;;;;;;14.31;89.97;101621.88;5051830;28;20024;-79
2022/08/21 00:38:00;;;;;;;9.02;6.80;;;;;;;14.29;90.07;101610.56;5049092;28;20108;-80
2022/08/21 00:40:30;;;;;;;11.45;6.72;;;;;;;14.37;89.67;101615.25;5084796;28;20025;-79
2022/08/21 00:42:56;;;;;;;10.23;6.80;;;;;;;14.34;89.59;101608.41;5084651;28;20052;-79
2022/08/21 00:45:22;;;;;;;9.43;6.68;;;;;;;14.31;89.78;101616.56;5051860;28;20029;-79
2022/08/21 00:47:50;;;;;;;9.05;6.43;;;;;;;14.29;90.03;101615.84;5052289;28;20029;-79
2022/08/21 00:50:16;;;;;;;12.05;6.82;;;;;;;14.22;90.07;101612.00;5050731;28;20020;-79
2022/08/21 00:52:43;;;;;;;8.90;6.80;;;;;;;14.25;89.72;101606.47;5051904;28;20040;-78
2022/08/21 00:55:11;;;;;;;7.72;6.25;;;;;;;14.26;89.83;101612.59;5052115;28;20371;-78
2022/08/21 00:57:45;;;;;;;9.18;7.00;;;;;;;14.11;89.86;101615.47;5052773;28;20024;-76
2022/08/21 01:00:16;;;;;;;10.63;6.65;;;;;;;14.08;89.65;101621.00;5051563;28;20061;-76
2022/08/21 01:02:41;;;;;;;7.25;6.55;;;;;;;14.05;89.79;101609.81;5051369;28;20071;-76
2022/08/21 01:05:08;;;;;;;9.95;6.78;;;;;;;14.04;89.49;101618.72;5049965;28;20450;-76
2022/08/21 01:07:33;;;;;;;8.13;6.70;;;;;;;13.99;89.87;101610.25;5049805;28;20087;-76
2022/08/21 01:09:59;;;;;;;9.88;6.65;;;;;;;13.98;89.93;101611.22;5050934;28;20036;-77
2022/08/21 01:12:25;;;;;;;9.75;6.45;;;;;;;14.00;89.84;101611.94;5050609;28;20532;-76
2022/08/21 01:14:50;;;;;;;8.82;7.05;;;;;;;13.97;89.67;101617.47;5049760;28;20029;-75
2022/08/21 01:17:18;;;;;;;12.70;6.78;;;;;;;13.90;90.12;101622.38;5082085;28;20025;-77
2022/08/21 01:19:43;;;;;;;10.98;7.20;;;;;;;13.80;90.08;101611.66;5063501;28;20033;-76
2022/08/21 01:22:09;;;;;;;11.43;6.97;;;;;;;13.92;90.09;101616.97;5039751;28;20052;-76
2022/08/21 01:24:35;;;;;;;13.82;7.22;;;;;;;13.88;90.66;101607.59;5049301;28;20082;-77
2022/08/21 01:27:02;;;;;;;11.32;7.25;;;;;;;13.75;90.81;101608.53;5049099;28;20025;-77
2022/08/21 01:29:34;;;;;;;9.40;6.72;;;;;;;13.82;90.63;101608.91;5049507;28;20491;-76
2022/08/21 01:32:04;;;;;;;11.15;7.03;;;;;;;13.76;91.04;101604.91;5050216;28;20040;-76
2022/08/21 01:34:30;;;;;;;8.38;7.05;;;;;;;13.75;90.95;101597.94;5050232;28;20029;-77
2022/08/21 01:36:55;;;;;;;8.20;7.13;;;;;;;13.75;90.99;101603.25;5048947;28;20024;-77
2022/08/21 01:39:24;;;;;;;8.50;6.55;;;;;;;13.69;91.07;101602.84;5049195;28;20036;-77
2022/08/21 01:41:49;;;;;;;10.43;7.00;;;;;;;13.68;91.01;101607.31;5048607;28;20111;-76
2022/08/21 01:44:15;;;;;;;9.55;7.32;;;;;;;13.64;90.96;101610.28;5049277;28;20235;-76
2022/08/21 01:46:40;;;;;;;9.13;6.90;;;;;;;13.61;91.43;101610.50;5051152;28;20025;-76
2022/08/21 01:49:06;;;;;;;11.05;7.30;;;;;;;13.64;91.64;101607.66;5050411;28;20094;-76
2022/08/21 01:51:32;;;;;;;11.38;7.20;;;;;;;13.60;91.04;101604.38;5050780;28;20028;-76
2022/08/21 01:53:57;;;;;;;13.15;7.28;;;;;;;13.49;91.60;101612.25;5049613;28;20056;-76
2022/08/21 01:56:24;;;;;;;10.38;8.02;;;;;;;13.50;91.70;101600.72;5050976;28;20025;-76
2022/08/21 01:58:49;;;;;;;8.80;7.38;;;;;;;13.49;91.76;101597.25;5049918;28;20025;-75
2022/08/21 02:01:15;;;;;;;8.77;7.88;;;;;;;13.43;91.96;101602.13;5050157;28;20082;-75
2022/08/21 02:03:41;;;;;;;8.77;7.88;;;;;;;13.46;91.50;101596.63;5083449;28;20021;-77
2022/08/21 02:06:11;;;;;;;13.82;9.07;;;;;;;13.42;92.16;101600.44;5050642;28;20035;-78
2022/08/21 02:08:37;;;;;;;9.63;8.38;;;;;;;13.36;92.00;101591.19;5050306;28;20020;-77
2022/08/21 02:11:02;;;;;;;10.95;8.70;;;;;;;13.36;91.26;101592.97;5049169;28;20032;-76
2022/08/21 02:13:27;;;;;;;9.63;8.57;;;;;;;13.33;91.84;101586.13;5049772;28;20032;-76
2022/08/21 02:15:53;;;;;;;13.07;9.02;;;;;;;13.26;92.23;101576.13;5048577;28;20040;-77
2022/08/21 02:18:18;;;;;;;12.88;9.27;;;;;;;13.25;92.37;101571.78;5049599;28;20017;-76
2022/08/21 02:20:46;;;;;;;11.50;9.38;;;;;;;13.25;92.54;101579.72;5049747;28;20039;-76
2022/08/21 02:23:13;;;;;;;9.85;8.85;;;;;;;13.19;92.19;101578.34;5047258;28;20565;-77
2022/08/21 02:25:38;;;;;;;13.40;8.88;;;;;;;13.16;92.46;101579.38;5048916;28;20037;-77
2022/08/21 02:28:07;;;;;;;11.52;9.48;;;;;;;13.20;92.52;101587.09;5048664;28;20033;-77
2022/08/21 02:30:37;;;;;;;11.80;9.60;;;;;;;13.22;93.27;101590.53;5047910;28;20025;-77
2022/08/21 02:33:03;;;;;;;12.20;9.48;;;;;;;13.18;92.68;101593.34;5046307;28;20795;-77
2022/08/21 02:35:29;;;;;;;9.70;8.82;;;;;;;13.18;92.30;101587.22;5049997;28;20079;-78
2022/08/21 02:37:57;;;;;;;10.63;9.60;;;;;;;13.11;92.78;101592.09;5048751;28;20029;-75
2022/08/21 02:40:27;;;;;;;11.70;9.82;;;;;;;13.03;93.05;101586.53;5082077;28;20028;-76
2022/08/21 02:42:53;;;;;;;12.80;10.32;;;;;;;13.03;92.82;101581.25;5049398;28;20052;-77
2022/08/21 02:45:19;;;;;;;12.55;9.93;;;;;;;13.07;92.68;101580.06;5048658;28;20021;-78
2022/08/21 02:47:50;;;;;;;12.38;10.32;;;;;;;13.07;92.87;101582.69;5048551;28;20048;-76
2022/08/21 02:50:20;;;;;;;11.88;10.23;;;;;;;12.95;93.09;101583.59;5048987;28;20021;-76
2022/08/21 02:52:45;;;;;;;12.07;10.57;;;;;;;12.97;93.60;101572.91;5049438;28;20043;-78
2022/08/21 02:55:11;;;;;;;12.48;10.85;;;;;;;12.96;93.75;101580.00;5048615;28;20797;-76
2022/08/21 02:57:36;;;;;;;13.82;12.48;;;;;;;13.00;95.17;101584.09;5048762;28;20043;-78
2022/08/21 03:00:04;;;;;;;16.75;13.23;;;;;;;12.98;95.21;101591.28;5050040;28;20486;-78
2022/08/21 03:02:30;;;;;;;17.30;12.95;;;;;;;13.03;95.21;101578.59;5050591;28;20053;-78
2022/08/21 03:04:56;;;;;;;14.18;12.13;;;;;;;13.00;95.34;101578.81;5047557;28;20383;-78
2022/08/21 03:07:21;;;;;;;15.15;12.85;;;;;;;12.94;95.63;101578.41;5048857;28;20501;-77
2022/08/21 03:09:47;;;;;;;15.25;12.75;;;;;;;12.93;95.48;101574.09;5049151;28;20033;-78
2022/08/21 03:12:12;;;;;;;17.98;13.40;;;;;;;12.95;95.66;101577.47;5049018;28;20036;-78
2022/08/21 03:14:40;;;;;;;15.48;11.93;;;;;;;12.96;95.23;101577.34;5049429;28;20028;-78
2022/08/21 03:17:06;;;;;;;13.68;12.35;;;;;;;12.90;95.58;101572.53;5046654;28;20487;-77
2022/08/21 03:19:32;;;;;;;13.10;11.10;;;;;;;12.92;95.47;101575.06;5047998;28;20036;-77
2022/08/21 03:21:58;;;;;;;16.73;12.23;;;;;;;12.87;95.51;101572.75;5045770;28;20032;-78
2022/08/21 03:24:24;;;;;;;15.65;12.10;;;;;;;12.77;96.16;101567.25;5048682;28;20052;-77
2022/08/21 03:26:49;;;;;;;15.80;11.55;;;;;;;12.78;96.35;101563.66;5048365;28;20029;-78
2022/08/21 03:29:14;;;;;;;16.67;12.15;;;;;;;12.77;96.56;101577.81;5048661;28;20033;-78
2022/08/21 03:31:40;;;;;;;17.30;12.52;;;;;;;12.75;96.52;101574.44;5047489;28;20025;-78
2022/08/21 03:34:05;;;;;;;14.90;11.80;;;;;;;12.74;96.85;101571.91;5047216;28;20454;-78
2022/08/21 03:36:32;;;;;;;14.15;12.25;;;;;;;12.72;96.96;101572.03;5048225;28;20032;-77
2022/08/21 03:38:58;;;;;;;13.95;11.50;;;;;;;12.70;97.22;101571.28;5042793;28;20111;-77
2022/08/21 03:41:23;;;;;;;13.20;11.50;;;;;;;12.67;97.46;101568.03;5028978;28;20076;-77
2022/08/21 03:43:49;;;;;;;16.60;12.40;;;;;;;12.67;97.49;101565.38;5036481;28;20041;-78
2022/08/21 03:46:14;;;;;;;17.75;12.32;;;;;;;12.62;97.73;101562.22;5049545;28;20043;-77
2022/08/21 03:48:40;;;;;;;13.40;10.95;;;;;;;12.72;97.78;101557.97;5050023;28;20032;-77
2022/08/21 03:51:06;;;;;;;16.05;11.82;;;;;;;12.74;97.08;101561.34;5049785;28;20021;-78
2022/08/21 03:53:32;;;;;;;18.88;11.75;;;;;;;12.73;97.06;101560.50;5049706;28;20032;-79
2022/08/21 03:55:57;;;;;;;14.63;11.48;;;;;;;12.74;97.09;101556.06;5046893;28;20497;-79
2022/08/21 03:58:25;;;;;;;14.77;11.85;;;;;;;12.73;97.36;101555.22;5049816;28;20025;-79
2022/08/21 04:00:54;;;;;;;14.25;11.88;;;;;;;12.76;97.43;101562.09;5048562;28;20475;-78
2022/08/21 04:03:19;;;;;;;18.80;12.75;;;;;;;12.72;97.91;101557.97;5049765;28;20025;-77
2022/08/21 04:05:45;;;;;;;21.38;12.45;;;;;;;12.68;97.88;101567.06;5050094;28;20083;-78
2022/08/21 04:08:11;;;;;;;20.23;12.23;;;;;;;12.64;98.30;101568.25;5049275;28;20035;-76
2022/08/21 04:10:39;;;;;;;17.83;12.18;;;;;;;12.54;98.71;101561.00;5048896;28;20037;-79
2022/08/21 04:13:06;;;;;;;12.52;11.15;;;;;;;12.62;98.32;101560.44;5049173;28;20540;-79
2022/08/21 04:15:34;;;;;;;13.70;11.63;;;;;;;12.69;98.38;101566.13;5049583;28;20371;-79
2022/08/21 04:17:59;;;;;;;14.80;11.27;;;;;;;12.65;98.08;101567.28;5049181;28;20041;-79
2022/08/21 04:20:25;;;;;;;18.15;11.43;;;;;;;12.64;97.69;101568.25;5050066;28;20474;-78
2022/08/21 04:22:54;;;;;;;20.30;11.90;;;;;;;12.70;98.17;101573.09;5048646;28;20029;-77
2022/08/21 04:25:25;;;;;;;15.50;11.23;;;;;;;12.69;97.59;101568.75;5049135;28;20087;-77
2022/08/21 04:27:50;;;;;;;15.32;11.18;;;;;;;12.65;97.66;101573.41;5047993;28;20170;-77
2022/08/21 04:30:16;;;;;;;18.15;11.30;;;;;;;12.62;97.38;101572.78;5046799;28;20040;-78
2022/08/21 04:32:47;;;;;;;17.15;11.38;;;;;;;12.61;97.72;101576.38;5049245;28;20600;-77
2022/08/21 04:35:15;;;;;;;16.75;10.63;;;;;;;12.60;97.93;101583.47;5048010;28;20025;-78
2022/08/21 04:37:41;;;;;;;13.02;10.23;;;;;;;12.61;97.76;101576.38;5048881;28;20082;-79
2022/08/21 04:40:10;;;;;;;17.80;11.55;;;;;;;12.55;97.89;101582.94;5071168;28;20029;-77
2022/08/21 04:42:44;;;;;;;14.85;11.10;;;;;;;12.54;97.76;101591.81;5071315;28;20045;-78
2022/08/21 04:45:15;;;;;;;14.40;10.48;;;;;;;12.59;97.56;101583.56;5068554;28;20116;-78
2022/08/21 04:47:40;;;;;;;15.13;11.00;;;;;;;12.59;97.45;101583.56;5069468;28;20029;-78
2022/08/21 04:50:06;;;;;;;16.00;10.93;;;;;;;12.54;97.75;101583.91;5067913;28;20047;-78
2022/08/21 04:52:31;;;;;;;13.85;10.18;;;;;;;12.61;97.46;101586.94;5068540;28;20027;-78
2022/08/21 04:54:57;;;;;;;15.50;10.85;;;;;;;12.66;97.44;101590.09;5068087;28;20021;-78
2022/08/21 04:57:22;;;;;;;19.73;11.15;;;;;;;12.52;97.46;101589.28;5065125;28;20017;-78
2022/08/21 04:59:51;;;;;;;14.57;10.23;;;;;;;12.59;97.62;101584.41;5055215;28;20017;-78
2022/08/21 05:02:16;;;;;;;10.95;9.88;;;;;;;12.60;97.15;101591.38;5062884;28;20346;-77
2022/08/21 05:04:47;;;;;;;15.02;10.10;;;;;;;12.54;97.93;101597.09;5049063;28;20026;-76
2022/08/21 05:07:16;;;;;;;14.43;10.15;;;;;;;12.59;97.77;101591.50;5049802;28;20029;-75
2022/08/21 05:09:43;;;;;;;19.83;10.35;;;;;;;12.58;97.82;101589.81;5051947;28;20223;-76
2022/08/21 05:12:09;;;;;;;13.23;10.00;;;;;;;12.62;97.73;101593.91;5049069;28;20043;-76
2022/08/21 05:14:35;;;;;;;13.98;10.05;;;;;;;12.72;97.63;101600.22;5050773;28;20042;-76
2022/08/21 05:17:00;;;;;;;15.50;9.40;;;;;;;12.71;97.44;101609.09;5053346;28;20033;-76
2022/08/21 05:19:27;;;;;;;15.25;9.88;;;;;;;12.70;97.42;101602.97;5073090;28;20035;-75
2022/08/21 05:21:52;;;;;;;15.52;10.52;;;;;;;12.70;97.85;101599.50;5072824;28;20076;-75
2022/08/21 05:24:18;;;;;;;15.32;10.10;;;;;;;12.79;97.57;101606.75;5073265;28;20067;-77
2022/08/21 05:26:44;;;;;;;12.82;9.85;;;;;;;12.79;97.47;101614.69;5073460;28;20043;-75
2022/08/21 05:29:10;;;;;;;16.40;10.18;;;;;;;12.86;97.81;101610.69;5052565;28;20398;-78
2022/08/21 05:31:36;;;;;;;16.40;10.40;;;;;;;12.95;97.48;101607.38;5052033;28;20091;-78
2022/08/21 05:34:02;;;;;;;13.68;9.40;;;;;;;12.95;97.35;101612.66;5050199;28;20021;-76
2022/08/21 05:36:27;;;;;;;12.77;9.20;;;;;;;13.08;97.46;101608.16;5051843;28;20132;-77
2022/08/21 05:38:53;;;;;;;15.20;9.73;;;;;;;13.15;96.98;101601.47;5049254;28;20581;-78
2022/08/21 05:41:18;;;;;;;14.07;8.63;;;;;;;13.18;96.53;101609.22;5050248;28;20024;-79
2022/08/21 05:43:44;;;;;;;14.52;9.05;;;;;;;13.26;96.27;101613.13;5051127;28;20098;-79
2022/08/21 05:46:09;;;;;;;12.02;9.02;;;;;;;13.32;96.24;101607.38;5048730;28;20505;-78
2022/08/21 05:48:42;;;;;;;11.40;8.48;;;;;;;13.40;95.98;101612.94;5050920;28;20029;-78
2022/08/21 05:51:12;;;;;;;14.60;8.80;;;;;;;13.45;95.82;101611.66;5042855;28;20068;-77
2022/08/21 05:53:41;;;;;;;12.85;9.02;;;;;;;13.48;95.81;101621.16;5041997;28;20025;-78
2022/08/21 05:56:07;;;;;;;15.23;8.70;;;;;;;13.49;96.09;101607.81;5050604;28;20108;-78
2022/08/21 05:58:33;;;;;;;13.35;8.40;;;;;;;13.54;95.96;101604.81;5049427;28;20112;-79
2022/08/21 06:01:00;;;;;;;13.38;8.57;;;;;;;13.52;95.65;101609.38;5048875;28;20033;-79
2022/08/21 06:03:28;;;;;;;12.50;7.90;;;;;;;13.61;95.50;101605.19;5046730;28;20405;-78
2022/08/21 06:05:55;;;;;;;13.93;8.32;;;;;;;13.60;96.23;101612.28;5046936;28;20031;-78
2022/08/21 06:08:21;;;;;;;12.48;7.82;;;;;;;13.62;96.20;101613.06;5049054;28;20741;-78
2022/08/21 06:10:48;;;;;;;17.27;8.13;;;;;;;13.68;96.03;101607.31;5057620;28;20035;-78
2022/08/21 06:13:15;;;;;;;10.68;8.13;;;;;;;13.73;96.23;101612.25;5049178;28;20083;-78
2022/08/21 06:15:41;;;;;;;11.63;7.95;;;;;;;13.82;96.09;101613.34;5050304;28;20390;-78
2022/08/21 06:18:07;;;;;;;12.48;7.53;;;;;;;13.89;95.94;101620.69;5044497;28;20074;-79
2022/08/21 06:20:32;;;;;;;14.98;8.15;;;;;;;13.93;96.00;101621.31;5047298;28;20036;-78
2022/08/21 06:22:58;;;;;;;14.73;8.70;;;;;;;13.97;96.15;101617.47;5047148;28;20050;-79
2022/08/21 06:25:24;;;;;;;13.48;8.07;;;;;;;14.03;95.71;101611.75;5035742;28;20024;-79
2022/08/21 06:27:50;;;;;;;15.73;7.57;;;;;;;14.11;96.06;101619.94;5040764;28;20036;-78
2022/08/21 06:30:15;;;;;;;16.08;7.72;;;;;;;14.18;95.88;101615.84;5041391;28;20036;-79
2022/08/21 06:32:41;;;;;;;12.82;7.97;;;;;;;14.26;95.88;101608.16;5033485;28;20033;-79
2022/08/21 06:35:06;;;;;;;16.23;8.60;;;;;;;14.36;96.12;101609.13;5030106;28;20468;-79
2022/08/21 06:37:32;;;;;;;13.02;7.55;;;;;;;14.43;95.40;101614.84;5034509;28;20056;-78
2022/08/21 06:39:59;;;;;;;13.85;7.97;;;;;;;14.54;95.83;101617.47;5038860;28;20036;-78
2022/08/21 06:42:27;;;;;;;14.88;7.30;;;;;;;14.62;95.55;101614.22;5029750;28;20054;-78
2022/08/21 06:44:53;;;;;;;14.43;7.25;;;;;;;14.71;95.08;101616.16;5036042;28;20517;-80
2022/08/21 06:47:18;;;;;;;14.88;7.13;;;;;;;14.81;94.77;101617.13;5038677;28;20030;-79
2022/08/21 06:49:43;;;;;;;13.88;7.05;;;;;;;14.92;94.93;101617.09;5029494;28;20053;-79
2022/08/21 06:52:11;;;;;;;17.63;8.07;;;;;;;15.02;94.99;101623.34;5047806;28;20021;-79
2022/08/21 06:54:37;;;;;;;12.02;7.18;;;;;;;15.11;94.76;101618.25;5079510;28;20483;-78
2022/08/21 06:57:02;;;;;;;14.93;7.28;;;;;;;15.20;95.36;101625.47;5028261;28;20079;-78
2022/08/21 06:59:28;;;;;;;14.77;7.00;;;;;;;15.30;95.29;101627.28;5029130;28;20033;-78
2022/08/21 07:01:53;;;;;;;14.70;6.82;;;;;;;15.50;94.51;101620.31;5029052;28;20091;-78
2022/08/21 07:04:19;;;;;;;15.88;6.97;;;;;;;15.65;93.28;101605.84;5029339;28;20036;-80
2022/08/21 07:06:45;;;;;;;13.70;6.97;;;;;;;15.89;93.33;101607.41;5048491;28;20044;-80
2022/08/21 07:09:10;;;;;;;14.45;6.68;;;;;;;16.05;91.33;101609.63;5043735;28;20379;-80
2022/08/21 07:11:37;;;;;;;12.38;6.80;;;;;;;16.32;91.65;101603.75;5042415;28;20037;-79
2022/08/21 07:14:02;;;;;;;15.98;6.40;;;;;;;16.55;90.37;101607.91;5046469;28;20103;-80
2022/08/21 07:16:28;;;;;;;22.33;6.82;;;;;;;16.83;89.52;101604.56;5048872;28;20120;-79
2022/08/21 07:18:53;;;;;;;14.23;6.20;;;;;;;17.05;88.45;101613.28;5045914;28;20032;-79
2022/08/21 07:21:19;;;;;;;12.27;5.90;;;;;;;17.34;87.51;101603.53;5040653;28;20368;-80
2022/08/21 07:23:50;;;;;;;16.77;6.00;;;;;;;17.48;85.83;101605.78;5048736;28;20025;-80
2022/08/21 07:26:20;;;;;;;14.95;5.60;;;;;;;17.66;85.45;101602.44;5047384;28;20021;-78
2022/08/21 07:28:46;;;;;;;13.00;5.82;;;;;;;17.68;85.26;101605.81;5032332;28;20364;-79
2022/08/21 07:31:14;;;;;;;15.15;5.80;;;;;;;17.81;84.34;101606.38;5032319;28;20577;-82
2022/08/21 07:33:41;;;;;;;15.10;5.65;;;;;;;17.85;82.85;101603.28;5049707;28;20048;-81
2022/08/21 07:36:06;;;;;;;20.23;6.57;;;;;;;17.76;83.24;101597.97;5034972;28;20069;-82
2022/08/21 07:38:31;;;;;;;15.20;5.90;;;;;;;17.88;82.95;101607.47;5048626;28;20120;-81
2022/08/21 07:41:00;;;;;;;13.75;4.95;;;;;;;18.06;82.45;101608.44;5028522;28;20030;-81
2022/08/21 07:43:26;;;;;;;12.98;4.80;;;;;;;18.36;82.76;101596.69;5073947;28;20128;-81
2022/08/21 07:45:53;;;;;;;11.18;4.90;;;;;;;18.71;80.66;101606.69;5031151;28;20475;-82
2022/08/21 07:48:19;;;;;;;13.60;5.03;;;;;;;18.97;79.56;101606.00;5039769;28;20154;-78
2022/08/21 07:50:45;;;;;;;13.52;4.95;;;;;;;19.14;77.13;101612.34;5036436;28;20100;-80
2022/08/21 07:53:10;;;;;;;11.38;4.50;;;;;;;19.25;76.84;101602.31;5035675;28;20094;-79
2022/08/21 07:55:36;;;;;;;12.43;4.25;;;;;;;19.35;76.31;101602.25;5046788;28;20023;-79
2022/08/21 07:58:01;;;;;;;10.68;3.70;;;;;;;19.46;75.35;101609.19;5031538;28;20032;-79
2022/08/21 08:00:28;;;;;;;12.15;4.00;;;;;;;19.73;75.72;101608.28;5041331;28;20025;-76
2022/08/21 08:02:54;;;;;;;14.55;4.15;;;;;;;19.81;73.28;101595.84;5047005;28;20020;-78
2022/08/21 08:05:28;;;;;;;17.50;4.07;;;;;;;19.93;73.18;101599.94;5047410;28;20025;-79
2022/08/21 08:07:54;;;;;;;10.65;3.50;;;;;;;20.00;73.02;101598.31;5062399;28;20036;-79
2022/08/21 08:10:20;;;;;;;16.27;4.05;;;;;;;20.13;71.83;101599.75;5047503;28;20582;-79
2022/08/21 08:12:46;;;;;;;11.63;4.15;;;;;;;20.21;71.80;101599.78;5048069;28;20029;-79
2022/08/21 08:15:15;;;;;;;13.63;3.80;;;;;;;20.23;71.03;101595.13;5045373;28;20021;-79
2022/08/21 08:17:41;;;;;;;11.95;4.18;;;;;;;20.21;71.04;101597.13;5047451;28;20040;-79
2022/08/21 08:20:08;;;;;;;10.68;3.60;;;;;;;20.33;71.72;101590.50;5046167;28;20025;-78
2022/08/21 08:22:35;;;;;;;14.25;3.67;;;;;;;20.47;71.37;101589.13;5047846;28;20677;-78
2022/08/21 08:25:01;;;;;;;13.05;3.40;;;;;;;20.88;71.86;101592.78;5047562;28;20049;-80
2022/08/21 08:27:26;;;;;;;11.85;3.45;;;;;;;21.01;70.01;101590.47;5048394;28;20060;-79
2022/08/21 08:29:55;;;;;;;11.82;3.50;;;;;;;21.27;68.02;101596.59;5045446;28;20098;-80
2022/08/21 08:32:20;;;;;;;12.25;3.45;;;;;;;21.24;68.70;101586.22;5047799;28;20461;-79
2022/08/21 08:34:46;;;;;;;17.17;3.72;;;;;;;21.31;67.83;101596.28;5048006;28;20009;-79
2022/08/21 08:37:12;;;;;;;12.52;3.50;;;;;;;21.47;67.79;101582.88;5047107;28;20894;-80
2022/08/21 08:39:38;;;;;;;10.32;3.60;;;;;;;21.49;66.25;101586.25;5047900;28;20021;-78
2022/08/21 08:42:13;;;;;;;12.45;3.20;;;;;;;21.64;67.66;101581.91;5046217;28;20057;-76
2022/08/21 08:44:44;;;;;;;13.32;3.85;;;;;;;21.97;66.04;101584.53;5048017;28;20032;-80
2022/08/21 08:47:17;;;;;;;9.90;3.25;;;;;;;22.01;65.59;101577.81;5047770;28;20021;-79
2022/08/21 08:49:54;;;;;;;10.40;2.88;;;;;;;22.15;65.21;101574.50;5047442;28;20455;-80
2022/08/21 08:52:28;;;;;;;13.85;3.55;;;;;;;22.17;65.39;101577.84;5049455;28;20463;-79
2022/08/21 08:55:08;;;;;;;11.15;3.30;;;;;;;22.30;65.96;101563.91;5052713;28;20029;-79
2022/08/21 08:57:34;;;;;;;9.45;2.65;;;;;;;22.47;63.80;101563.69;5051830;28;20368;-78
2022/08/21 09:00:06;;;;;;;11.63;3.03;;;;;;;22.62;63.55;101565.63;5052162;28;20104;-79
2022/08/21 09:02:33;;;;;;;12.90;2.90;;;;;;;22.81;62.50;101559.84;5053436;28;20021;-80
2022/08/21 09:04:59;;;;;;;11.88;2.80;;;;;;;22.58;62.30;101564.31;5053260;28;20083;-80
2022/08/21 09:07:39;;;;;;;9.93;2.90;;;;;;;22.62;63.06;101563.78;5067748;28;20095;-80
2022/08/21 09:10:19;;;;;;;9.07;2.83;;;;;;;22.45;61.93;101554.13;5051554;28;20065;-81
2022/08/21 09:13:02;;;;;;;10.68;2.53;;;;;;;22.32;63.15;101554.66;5053343;28;20021;-80
2022/08/21 09:15:51;;;;;;;10.82;2.58;;;;;;;22.42;63.35;101557.16;5050583;28;20082;-80
2022/08/21 09:18:27;;;;;;;10.63;2.40;;;;;;;22.39;59.78;101560.16;5049490;28;20029;-80
2022/08/21 09:21:20;;;;;;;8.23;2.10;;;;;;;22.37;62.94;101552.28;5052132;28;20037;-80
2022/08/21 09:24:01;;;;;;;;;;;;;;;22.60;63.13;101557.75;5051721;28;20025;-77
2022/08/21 09:26:58;;;;;;;7.82;2.20;;;;;;;22.79;60.84;101557.31;5053405;28;20251;-75
2022/08/21 09:29:29;;;;;;;9.35;2.38;;;;;;;22.80;57.70;101558.13;5033597;28;20029;-79
2022/08/21 09:31:54;;;;;;;7.57;2.40;;;;;;;22.77;57.15;101561.19;5044537;28;20048;-79
2022/08/21 09:34:28;;;;;;;11.15;2.10;;;;;;;22.70;58.36;101547.63;5050378;28;20044;-79
2022/08/21 09:36:55;;;;;;;9.20;2.60;;;;;;;22.58;57.33;101553.56;5049475;28;20043;-79
2022/08/21 09:39:37;;;;;;;7.03;2.10;;;;;;;22.71;58.35;101551.16;5049084;28;20032;-78
2022/08/21 09:42:06;;;;;;;10.82;2.78;;;;;;;22.87;58.49;101556.47;5050184;28;20186;-79
2022/08/21 09:44:39;;;;;;;7.72;2.45;;;;;;;23.10;58.87;101560.00;5051067;28;20029;-78
2022/08/21 09:47:04;;;;;;;8.45;2.20;;;;;;;23.17;56.88;101560.13;5048795;28;20078;-77
2022/08/21 09:49:38;;;;;;;11.18;2.50;;;;;;;23.34;58.01;101566.22;5049899;28;20033;-78
2022/08/21 09:52:15;;;;;;;6.55;2.00;;;;;;;23.44;54.27;101562.28;5049153;28;20021;-77
2022/08/21 09:54:44;;;;;;;8.95;2.35;;;;;;;23.39;55.17;101558.47;5050555;28;20024;-78
2022/08/21 09:59:55;;;;;;;8.40;2.85;;;;;;;23.62;55.34;101551.28;5050387;28;20043;-78
2022/08/21 10:02:27;;;;;;;8.75;2.70;;;;;;;23.80;56.71;101544.72;5050711;28;20032;-78
2022/08/21 10:04:58;;;;;;;8.75;2.53;;;;;;;23.89;53.94;101548.97;5049168;28;20037;-76
2022/08/21 10:07:27;;;;;;;6.13;2.20;;;;;;;24.02;53.32;101543.81;5051043;28;20107;-78
2022/08/21 10:10:06;;;;;;;8.88;2.20;;;;;;;24.36;53.33;101541.41;5049971;28;20382;-79
2022/08/21 10:12:53;;;;;;;8.77;2.10;;;;;;;24.13;54.16;101531.75;5051682;28;20032;-78
2022/08/21 10:15:34;;;;;;;8.30;2.00;;;;;;;23.77;55.12;101545.06;5048514;28;20036;-78
2022/08/21 10:18:26;;;;;;;8.85;2.78;;;;;;;23.60;55.34;101547.06;5049895;28;20036;-79
2022/08/21 10:21:09;;;;;;;8.60;2.55;;;;;;;23.45;55.35;101557.75;5049503;28;20025;-78
2022/08/21 10:24:01;;;;;;;8.30;2.10;;;;;;;23.27;54.88;101552.69;5030162;28;20054;-79
2022/08/21 10:26:40;;;;;;;8.48;2.00;;;;;;;23.34;54.21;101547.44;5028965;28;20529;-76
2022/08/21 10:29:15;;;;;;;8.68;2.30;;;;;;;23.47;53.79;101544.97;5027729;28;20129;-79
2022/08/21 10:32:21;;;;;;;7.65;2.10;;;;;;;23.63;54.65;101539.50;5044618;28;20028;-78
2022/08/21 10:35:12;;;;;;;5.05;1.85;;;;;;;23.57;52.41;101550.94;4997645;28;20051;-80
2022/08/21 10:37:37;;;;;;;6.53;2.25;;;;;;;23.48;51.84;101541.25;5049812;28;20032;-80
2022/08/21 10:40:29;;;;;;;5.57;1.83;;;;;;;23.48;52.40;101548.50;5047989;28;20028;-79
2022/08/21 10:43:24;;;;;;;9.35;2.28;;;;;;;23.40;53.34;101544.03;5029007;28;20288;-78
2022/08/21 10:46:01;;;;;;;9.23;2.53;;;;;;;23.28;52.86;101549.00;5028570;28;20734;-79
2022/08/21 10:48:38;;;;;;;11.52;2.95;;;;;;;23.20;52.62;101550.88;5029916;28;20033;-78
2022/08/21 10:51:30;;;;;;;8.65;2.47;;;;;;;23.35;52.85;101552.63;5033482;28;20052;-78
2022/08/21 10:54:03;;;;;;;9.50;2.50;;;;;;;23.41;52.55;101546.53;5025182;28;20034;-80
2022/08/21 10:56:35;;;;;;;9.38;2.30;;;;;;;23.43;51.49;101538.28;5039427;28;20049;-80
2022/08/21 10:59:22;;;;;;;7.93;2.30;;;;;;;23.29;53.31;101541.78;5049366;28;20024;-80
2022/08/21 11:02:03;;;;;;;6.63;2.30;;;;;;;23.24;53.72;101539.63;5049313;28;20482;-79
2022/08/21 11:04:38;;;;;;;7.93;2.53;;;;;;;23.44;53.10;101534.59;5048241;28;20490;-79
2022/08/21 11:07:13;;;;;;;7.93;2.80;;;;;;;23.48;53.67;101532.38;5049649;28;20059;-79
2022/08/21 11:09:43;;;;;;;8.82;2.95;;;;;;;23.47;53.05;101538.75;5048881;28;20367;-79
2022/08/21 11:12:27;;;;;;;8.20;3.05;;;;;;;23.57;54.21;101534.84;5049794;28;20025;-79
2022/08/21 11:15:19;;;;;;;8.80;2.88;;;;;;;23.89;53.36;101532.84;5049515;28;20502;-78
2022/08/21 11:17:57;;;;;;;11.98;2.58;;;;;;;24.17;51.49;101530.38;5049821;28;20033;-79
2022/08/21 11:20:37;;;;;;;10.43;2.50;;;;;;;24.19;51.71;101531.84;5050600;28;20044;-78
2022/08/21 11:23:11;;;;;;;6.15;2.20;;;;;;;24.34;50.07;101538.09;5030967;28;20071;-76
2022/08/21 11:25:43;;;;;;;7.07;2.50;;;;;;;24.35;49.70;101529.00;5045557;28;20033;-76
2022/08/21 11:28:27;;;;;;;8.15;2.70;;;;;;;24.19;50.57;101525.66;5048401;28;20036;-78